Time;durP1;ratioP1;P1;durP2;ratioP2;P2;SDS_P1;SDS_P2;PMS_P1;PMS_P2;Temp;Humidity;BMP_temperature;BMP_pressure;BME280_temperature;BME280_humidity;BME280_pressure;Samples;Min_cycle;Max_cycle;Signal;HPM_P1;HPM_P2
2022/03/03 00:01:51;;;;;;;24.50;21.13;;;-2.50;99.90;;;;;;5085512;28;20794;-83
2022/03/03 00:04:17;;;;;;;24.90;20.55;;;-2.50;99.90;;;;;;5086990;28;20774;-83
2022/03/03 00:06:43;;;;;;;23.13;20.73;;;-2.50;99.90;;;;;;5085726;27;20424;-83
2022/03/03 00:09:10;;;;;;;22.23;19.85;;;-2.50;99.90;;;;;;5086890;28;20403;-82
2022/03/03 00:11:35;;;;;;;21.60;19.30;;;-2.50;99.90;;;;;;5085989;28;20389;-82
2022/03/03 00:14:01;;;;;;;22.00;19.27;;;-2.60;99.90;;;;;;5088804;28;20557;-82
2022/03/03 00:16:27;;;;;;;23.50;20.60;;;-2.60;99.90;;;;;;5105027;28;20379;-83
2022/03/03 00:18:53;;;;;;;23.35;20.75;;;-2.60;99.90;;;;;;5102707;27;20388;-83
2022/03/03 00:21:18;;;;;;;22.80;20.30;;;-2.70;99.90;;;;;;5085894;28;20374;-81
2022/03/03 00:23:44;;;;;;;23.70;19.83;;;-2.70;99.90;;;;;;5085780;28;20458;-83
2022/03/03 00:26:10;;;;;;;22.98;20.38;;;-2.70;99.90;;;;;;5105917;28;20391;-82
2022/03/03 00:28:36;;;;;;;22.85;20.20;;;-2.60;99.90;;;;;;5091888;28;20457;-82
2022/03/03 00:31:03;;;;;;;20.80;18.60;;;-2.60;99.90;;;;;;5104417;27;20403;-82
2022/03/03 00:33:29;;;;;;;21.20;19.00;;;-2.60;99.90;;;;;;5087473;28;20373;-81
2022/03/03 00:35:54;;;;;;;22.00;19.63;;;-2.70;99.90;;;;;;5065528;28;20371;-81
2022/03/03 00:38:20;;;;;;;22.13;19.63;;;-2.70;99.90;;;;;;5065991;28;20382;-81
2022/03/03 00:40:46;;;;;;;23.60;19.90;;;-2.80;99.90;;;;;;5064930;27;20741;-82
2022/03/03 00:43:12;;;;;;;24.63;21.83;;;-2.80;99.90;;;;;;5094497;28;20473;-82
2022/03/03 00:45:38;;;;;;;24.98;20.80;;;-2.80;99.90;;;;;;5104369;28;20789;-82
2022/03/03 00:48:04;;;;;;;25.45;20.48;;;-2.80;99.90;;;;;;5104530;28;20441;-82
2022/03/03 00:50:30;;;;;;;26.48;20.65;;;-2.60;99.90;;;;;;5085582;28;20385;-83
2022/03/03 00:52:56;;;;;;;22.40;20.03;;;-2.40;99.90;;;;;;5083284;27;20405;-84
2022/03/03 00:55:22;;;;;;;24.60;21.60;;;-2.50;99.90;;;;;;5085325;28;20374;-81
2022/03/03 00:57:48;;;;;;;24.33;21.00;;;-2.60;99.90;;;;;;5075376;28;20386;-82
2022/03/03 01:00:14;;;;;;;23.08;20.05;;;-2.60;99.90;;;;;;5085568;28;20383;-83
2022/03/03 01:02:40;;;;;;;25.50;20.48;;;-2.70;99.90;;;;;;5049907;28;20403;-81
2022/03/03 01:05:06;;;;;;;22.02;19.65;;;-2.70;99.90;;;;;;5069260;28;20386;-83
2022/03/03 01:07:32;;;;;;;22.88;20.40;;;-2.70;99.90;;;;;;5070037;28;20410;-83
2022/03/03 01:09:58;;;;;;;23.30;20.70;;;-2.70;99.90;;;;;;5084916;28;20384;-82
2022/03/03 01:12:23;;;;;;;23.53;20.17;;;-2.80;99.90;;;;;;5090221;28;20369;-84
2022/03/03 01:14:50;;;;;;;21.98;19.63;;;-2.80;99.90;;;;;;5091344;27;20418;-82
2022/03/03 01:17:16;;;;;;;23.05;20.55;;;-2.80;99.90;;;;;;5089849;28;20380;-83
2022/03/03 01:19:42;;;;;;;24.37;20.93;;;-2.70;99.90;;;;;;5090356;28;20376;-83
2022/03/03 01:22:08;;;;;;;23.05;19.80;;;-2.80;99.90;;;;;;5089528;28;20384;-84
2022/03/03 01:24:33;;;;;;;24.38;20.95;;;-2.80;99.90;;;;;;5091634;28;20433;-84
2022/03/03 01:26:59;;;;;;;23.15;20.65;;;-2.90;99.90;;;;;;5085358;27;20757;-82
2022/03/03 01:29:25;;;;;;;22.38;19.67;;;-3.00;99.90;;;;;;5071555;28;20370;-83
2022/03/03 01:31:51;;;;;;;25.38;21.70;;;-3.00;99.90;;;;;;5070729;28;20398;-81
2022/03/03 01:34:16;;;;;;;28.73;22.83;;;-3.00;99.90;;;;;;5070992;28;20390;-84
2022/03/03 01:36:43;;;;;;;28.77;23.42;;;-3.00;99.90;;;;;;5073418;27;20449;-84
2022/03/03 01:39:09;;;;;;;33.17;24.80;;;-3.10;99.90;;;;;;5091122;28;20470;-82
2022/03/03 01:41:36;;;;;;;28.77;23.27;;;-3.10;99.90;;;;;;5090506;28;20385;-82
2022/03/03 01:44:03;;;;;;;30.88;24.67;;;-3.10;99.90;;;;;;5091240;28;20387;-82
2022/03/03 01:46:28;;;;;;;31.47;24.93;;;-3.10;99.90;;;;;;5080494;28;20911;-83
2022/03/03 01:48:54;;;;;;;29.80;24.77;;;-3.20;99.90;;;;;;5069835;27;20481;-82
2022/03/03 01:51:20;;;;;;;28.75;24.00;;;-3.20;99.90;;;;;;5080853;28;20388;-83
2022/03/03 01:53:45;;;;;;;27.92;22.85;;;-3.10;99.90;;;;;;5078279;28;20390;-82
2022/03/03 01:56:12;;;;;;;30.17;24.97;;;-2.90;99.90;;;;;;5074206;28;20395;-83
2022/03/03 01:58:37;;;;;;;26.40;22.23;;;-3.10;99.90;;;;;;5089148;28;20860;-85
2022/03/03 02:01:04;;;;;;;27.65;22.88;;;-3.20;99.90;;;;;;5088297;28;20412;-84
2022/03/03 02:03:29;;;;;;;26.48;23.58;;;-3.20;99.90;;;;;;5090525;28;20379;-83
2022/03/03 02:05:55;;;;;;;26.70;22.60;;;-3.20;99.90;;;;;;5090682;28;20471;-83
2022/03/03 02:08:22;;;;;;;25.48;21.80;;;-3.00;99.90;;;;;;5072133;28;20386;-85
2022/03/03 02:10:48;;;;;;;25.33;22.60;;;-3.00;99.90;;;;;;5068326;28;20733;-84
2022/03/03 02:13:14;;;;;;;28.00;23.80;;;-3.10;99.90;;;;;;5069876;28;20413;-82
2022/03/03 02:15:47;;;;;;;26.65;23.55;;;-3.20;99.90;;;;;;5074941;28;20381;-82
2022/03/03 02:18:13;;;;;;;29.02;23.80;;;-3.30;99.90;;;;;;5089289;28;20438;-82
2022/03/03 02:20:38;;;;;;;28.13;23.83;;;-3.30;99.90;;;;;;5090573;27;20384;-81
2022/03/03 02:23:04;;;;;;;29.52;24.10;;;-3.30;99.90;;;;;;5088628;28;20380;-82
2022/03/03 02:25:29;;;;;;;28.63;24.60;;;-3.20;99.90;;;;;;5086467;28;20485;-84
2022/03/03 02:27:55;;;;;;;28.87;25.67;;;-3.10;99.90;;;;;;5069889;28;20385;-85
2022/03/03 02:30:21;;;;;;;28.90;24.27;;;-3.10;99.90;;;;;;5070757;28;20378;-84
2022/03/03 02:32:47;;;;;;;29.90;24.87;;;-3.20;99.90;;;;;;5070135;28;20374;-84
2022/03/03 02:35:13;;;;;;;26.58;23.02;;;-3.30;99.90;;;;;;5069690;28;20377;-84
2022/03/03 02:37:40;;;;;;;27.98;23.60;;;-3.30;99.90;;;;;;5089929;27;20388;-81
2022/03/03 02:40:09;;;;;;;28.65;24.60;;;-3.30;99.90;;;;;;5090006;28;20368;-82
2022/03/03 02:42:35;;;;;;;31.20;25.25;;;-3.40;99.90;;;;;;5089583;28;20379;-81
2022/03/03 02:45:03;;;;;;;28.27;24.02;;;-3.40;99.90;;;;;;5080787;28;20884;-83
2022/03/03 02:47:29;;;;;;;29.70;24.23;;;-3.40;99.90;;;;;;5089740;27;20457;-83
2022/03/03 02:49:55;;;;;;;28.27;23.80;;;-3.50;99.90;;;;;;5089732;28;20870;-82
2022/03/03 02:52:20;;;;;;;29.70;24.10;;;-3.50;99.90;;;;;;5089575;28;20361;-82
2022/03/03 02:54:46;;;;;;;27.48;24.08;;;-3.50;99.90;;;;;;5110491;28;20467;-83
2022/03/03 02:59:56;;;;;;;28.13;25.03;;;-3.60;99.90;;;;;;5108245;28;20969;-83
2022/03/03 03:02:22;;;;;;;29.67;25.60;;;-3.60;99.90;;;;;;5082071;28;21177;-83
2022/03/03 03:04:48;;;;;;;29.90;25.23;;;-3.40;99.90;;;;;;5089862;28;20384;-83
2022/03/03 03:07:13;;;;;;;30.73;25.77;;;-3.50;99.90;;;;;;5089080;27;20450;-81
2022/03/03 03:09:39;;;;;;;30.50;26.23;;;-3.60;99.90;;;;;;5076945;28;20391;-81
2022/03/03 03:12:05;;;;;;;33.27;26.37;;;-3.60;99.90;;;;;;5109757;28;20462;-83
2022/03/03 03:14:31;;;;;;;31.87;27.57;;;-3.50;99.90;;;;;;5109246;28;20381;-82
2022/03/03 03:16:56;;;;;;;30.55;27.02;;;-3.50;99.90;;;;;;5109251;28;20374;-82
2022/03/03 03:19:22;;;;;;;30.58;26.48;;;-3.50;99.90;;;;;;5087173;28;20450;-83
2022/03/03 03:21:47;;;;;;;33.80;27.27;;;-3.60;99.90;;;;;;5070620;28;20433;-81
2022/03/03 03:24:14;;;;;;;31.93;26.60;;;-3.70;99.90;;;;;;5088921;28;20781;-82
2022/03/03 03:26:40;;;;;;;30.00;25.90;;;-3.70;99.90;;;;;;5088648;27;20408;-82
2022/03/03 03:29:05;;;;;;;32.00;26.42;;;-3.80;99.90;;;;;;5096998;28;20744;-82
2022/03/03 03:31:31;;;;;;;31.47;27.77;;;-3.90;99.90;;;;;;5109190;28;20367;-81
2022/03/03 03:33:57;;;;;;;33.17;27.03;;;-3.90;99.90;;;;;;5109499;28;20370;-82
2022/03/03 03:36:22;;;;;;;29.87;25.60;;;-3.90;99.90;;;;;;5091445;28;20371;-84
2022/03/03 03:38:48;;;;;;;32.17;27.13;;;-4.00;99.90;;;;;;5103475;27;20401;-82
2022/03/03 03:41:14;;;;;;;31.53;26.43;;;-3.90;99.90;;;;;;5088644;28;20509;-81
2022/03/03 03:43:39;;;;;;;35.10;27.77;;;-3.90;99.90;;;;;;5070453;28;20413;-83
2022/03/03 03:46:05;;;;;;;32.83;28.13;;;-3.90;99.90;;;;;;5070579;28;21007;-80
2022/03/03 03:48:31;;;;;;;37.03;30.23;;;-3.70;99.90;;;;;;5089286;27;20875;-81
2022/03/03 03:50:57;;;;;;;34.60;29.40;;;-3.70;99.90;;;;;;5109112;28;20367;-83
2022/03/03 03:53:23;;;;;;;36.07;29.37;;;-3.80;99.90;;;;;;5108286;28;20383;-81
2022/03/03 03:55:50;;;;;;;35.65;30.23;;;-3.80;99.90;;;;;;5092416;28;20370;-84
2022/03/03 03:58:16;;;;;;;33.73;28.50;;;-4.00;99.90;;;;;;5089862;28;20513;-82
2022/03/03 04:00:42;;;;;;;33.00;28.77;;;-4.00;99.90;;;;;;5110077;28;20409;-82
2022/03/03 04:03:07;;;;;;;34.55;30.10;;;-4.00;99.90;;;;;;5108517;27;20387;-81
2022/03/03 04:05:33;;;;;;;34.43;29.03;;;-4.00;99.90;;;;;;5091418;28;20386;-83
2022/03/03 04:07:59;;;;;;;36.55;30.30;;;-4.10;99.90;;;;;;5094160;28;20389;-83
2022/03/03 04:10:25;;;;;;;34.00;29.70;;;-4.10;99.90;;;;;;5070637;28;20388;-83
2022/03/03 04:12:50;;;;;;;37.83;30.83;;;-3.80;99.90;;;;;;5088560;28;20864;-82
2022/03/03 04:15:16;;;;;;;39.10;32.30;;;-3.80;99.90;;;;;;5070402;28;20404;-81
2022/03/03 04:17:42;;;;;;;40.00;34.03;;;-3.80;99.90;;;;;;5079733;28;20888;-80
2022/03/03 04:20:09;;;;;;;38.60;31.95;;;-3.70;99.90;;;;;;5108771;28;20452;-82
2022/03/03 04:22:35;;;;;;;38.25;30.65;;;-3.80;99.90;;;;;;5090451;28;20381;-81
2022/03/03 04:25:02;;;;;;;38.00;31.20;;;-3.80;99.90;;;;;;5108770;28;20363;-81
2022/03/03 04:27:28;;;;;;;38.30;32.13;;;-3.90;99.90;;;;;;5076857;28;20376;-83
2022/03/03 04:29:53;;;;;;;36.80;30.40;;;-3.90;99.90;;;;;;5070269;28;20446;-84
2022/03/03 04:32:19;;;;;;;35.58;30.08;;;-3.80;99.90;;;;;;5071230;28;20376;-81
2022/03/03 04:34:45;;;;;;;36.42;30.98;;;-4.00;99.90;;;;;;5088135;28;20465;-82
2022/03/03 04:37:11;;;;;;;37.78;31.38;;;-4.10;99.90;;;;;;5112219;28;20968;-81
2022/03/03 04:39:37;;;;;;;38.90;32.35;;;-3.90;99.90;;;;;;5094391;28;20402;-81
2022/03/03 04:42:03;;;;;;;37.17;31.15;;;-3.90;99.90;;;;;;5099933;28;20770;-82
2022/03/03 04:44:28;;;;;;;39.67;32.67;;;-4.10;99.90;;;;;;5074325;28;20896;-82
2022/03/03 04:46:54;;;;;;;42.30;33.33;;;-4.10;99.90;;;;;;5091966;28;20475;-82
2022/03/03 04:49:20;;;;;;;37.10;31.20;;;-4.00;99.90;;;;;;5073993;28;20453;-81
2022/03/03 04:51:45;;;;;;;37.33;30.80;;;-4.10;99.90;;;;;;5082289;28;20434;-81
2022/03/03 04:54:11;;;;;;;35.27;29.67;;;-4.20;99.90;;;;;;5094242;28;20766;-82
2022/03/03 04:56:38;;;;;;;34.60;30.02;;;-4.30;99.90;;;;;;5093990;28;20379;-83
2022/03/03 04:59:05;;;;;;;35.03;29.90;;;-4.30;99.90;;;;;;5094285;28;20428;-83
2022/03/03 05:01:31;;;;;;;35.78;30.00;;;-4.40;99.90;;;;;;5104335;28;20386;-83
2022/03/03 05:03:57;;;;;;;39.55;32.35;;;-4.40;99.90;;;;;;5073968;28;20377;-82
2022/03/03 05:06:22;;;;;;;33.93;29.73;;;-4.20;99.90;;;;;;5091579;27;20489;-82
2022/03/03 05:08:48;;;;;;;40.78;33.63;;;-4.30;99.90;;;;;;5091767;28;20380;-82
2022/03/03 05:11:14;;;;;;;42.83;34.33;;;-4.10;99.90;;;;;;5082352;28;20371;-83
2022/03/03 05:13:40;;;;;;;39.22;33.55;;;-4.10;99.90;;;;;;5111803;28;20370;-82
2022/03/03 05:16:06;;;;;;;41.85;32.95;;;-4.30;99.90;;;;;;5093872;28;20439;-82
2022/03/03 05:18:32;;;;;;;39.83;33.65;;;-4.40;99.90;;;;;;5093452;28;20399;-84
2022/03/03 05:20:57;;;;;;;43.78;35.90;;;-4.40;99.90;;;;;;5104548;28;20389;-83
2022/03/03 05:23:23;;;;;;;44.43;36.37;;;-4.30;99.90;;;;;;5090851;28;20455;-84
2022/03/03 05:25:49;;;;;;;38.13;33.03;;;-4.30;99.90;;;;;;5092268;28;20396;-82
2022/03/03 05:28:15;;;;;;;40.58;33.78;;;-4.40;99.90;;;;;;5091357;28;20893;-84
2022/03/03 05:30:41;;;;;;;38.90;33.72;;;-4.40;99.90;;;;;;5079505;27;21264;-81
2022/03/03 05:33:07;;;;;;;41.17;33.40;;;-4.50;99.90;;;;;;5111516;28;20375;-83
2022/03/03 05:35:33;;;;;;;39.75;33.05;;;-4.50;99.90;;;;;;5102373;28;20380;-81
2022/03/03 05:37:59;;;;;;;41.17;32.92;;;-4.50;99.90;;;;;;5073326;28;20465;-81
2022/03/03 05:40:24;;;;;;;43.33;33.28;;;-4.60;99.90;;;;;;5097594;28;20378;-84
2022/03/03 05:42:50;;;;;;;38.65;32.58;;;-4.60;99.90;;;;;;5111439;28;20370;-82
2022/03/03 05:45:16;;;;;;;42.63;33.35;;;-4.70;99.90;;;;;;5111934;27;20383;-83
2022/03/03 05:47:44;;;;;;;44.57;33.40;;;-4.60;99.90;;;;;;5111342;28;20977;-83
2022/03/03 05:50:10;;;;;;;40.72;32.42;;;-4.70;99.90;;;;;;5107220;28;20446;-83
2022/03/03 05:52:36;;;;;;;40.88;35.00;;;-4.70;99.90;;;;;;5090804;28;20451;-84
2022/03/03 05:55:02;;;;;;;40.22;33.50;;;-4.70;99.90;;;;;;5092339;28;20380;-81
2022/03/03 05:57:32;;;;;;;42.87;35.13;;;-4.70;99.90;;;;;;5072172;28;20475;-84
2022/03/03 06:00:05;;;;;;;44.33;35.55;;;-4.70;99.90;;;;;;5085900;28;20409;-83
2022/03/03 06:02:31;;;;;;;42.13;34.78;;;-4.60;99.90;;;;;;5091675;28;20485;-84
2022/03/03 06:04:57;;;;;;;46.30;36.63;;;-4.60;99.90;;;;;;5092744;28;21011;-83
2022/03/03 06:07:28;;;;;;;47.92;38.05;;;-4.30;99.90;;;;;;5093060;28;20395;-84
2022/03/03 06:10:01;;;;;;;48.50;39.25;;;-4.10;99.90;;;;;;5103981;28;20395;-82
2022/03/03 06:12:51;;;;;;;45.90;38.05;;;-4.10;99.90;;;;;;5089428;27;20420;-83
2022/03/03 06:15:21;;;;;;;47.78;38.90;;;-4.10;99.90;;;;;;5075896;28;20390;-82
2022/03/03 06:17:48;;;;;;;45.15;37.97;;;-3.90;99.90;;;;;;5092681;28;20457;-82
2022/03/03 06:20:14;;;;;;;48.33;37.20;;;-3.90;99.90;;;;;;5101084;28;20395;-84
2022/03/03 06:22:40;;;;;;;50.47;38.25;;;-3.80;99.90;;;;;;5090083;28;20396;-83
2022/03/03 06:25:06;;;;;;;49.92;39.53;;;-3.80;99.90;;;;;;5089792;27;20432;-82
2022/03/03 06:27:32;;;;;;;49.85;40.05;;;-3.80;99.90;;;;;;5090063;28;20399;-84
2022/03/03 06:29:58;;;;;;;53.10;41.88;;;-3.70;99.90;;;;;;5077504;28;20498;-82
2022/03/03 06:32:23;;;;;;;57.73;44.80;;;-3.70;99.90;;;;;;5110178;28;20935;-83
2022/03/03 06:34:49;;;;;;;64.57;47.80;;;-3.40;99.90;;;;;;5091900;27;20367;-84
2022/03/03 06:37:15;;;;;;;71.10;49.90;;;-3.10;99.90;;;;;;5111141;28;20377;-82
2022/03/03 06:39:40;;;;;;;75.57;52.13;;;-2.90;99.90;;;;;;5073544;28;20401;-83
2022/03/03 06:42:07;;;;;;;91.53;55.53;;;-2.80;99.90;;;;;;5091571;28;20372;-82
2022/03/03 06:44:33;;;;;;;78.32;52.03;;;-2.80;99.90;;;;;;5094653;28;20380;-86
2022/03/03 06:46:59;;;;;;;99.00;58.97;;;-2.60;99.90;;;;;;5073352;28;20503;-85
2022/03/03 06:49:24;;;;;;;90.50;56.53;;;-2.50;99.90;;;;;;5107656;28;20467;-85
2022/03/03 06:51:53;;;;;;;104.83;56.90;;;-2.40;99.90;;;;;;5110179;28;20367;-82
2022/03/03 06:54:21;;;;;;;105.28;58.03;;;-2.20;99.90;;;;;;5091633;28;20383;-82
2022/03/03 06:56:53;;;;;;;97.25;55.80;;;-1.90;99.90;;;;;;5091337;28;20402;-84
2022/03/03 06:59:22;;;;;;;147.13;57.97;;;-1.90;99.90;;;;;;5076326;28;20472;-84
2022/03/03 07:01:49;;;;;;;121.55;56.03;;;-1.80;99.90;;;;;;5089474;28;20372;-86
2022/03/03 07:04:16;;;;;;;122.35;57.80;;;-1.70;99.90;;;;;;5104641;28;20473;-82
2022/03/03 07:06:43;;;;;;;112.50;55.08;;;-1.60;99.90;;;;;;5091395;28;20407;-83
2022/03/03 07:09:09;;;;;;;113.22;55.92;;;-1.70;99.90;;;;;;5105488;28;20374;-83
2022/03/03 07:11:38;;;;;;;117.22;56.10;;;-1.40;99.90;;;;;;5108980;28;20374;-83
2022/03/03 07:14:04;;;;;;;123.70;55.72;;;-1.30;99.90;;;;;;5109375;28;20493;-84
2022/03/03 07:16:44;;;;;;;88.27;51.10;;;-1.30;99.90;;;;;;5091726;28;20772;-85
2022/03/03 07:19:16;;;;;;;100.47;51.30;;;-1.20;99.90;;;;;;5090922;27;20480;-84
2022/03/03 07:21:42;;;;;;;117.40;54.80;;;-1.20;99.90;;;;;;5070713;28;20368;-82
2022/03/03 07:24:29;;;;;;;85.22;48.63;;;-1.20;99.90;;;;;;5071237;28;20384;-83
2022/03/03 07:26:58;;;;;;;81.45;47.45;;;-1.00;99.90;;;;;;5071096;28;20427;-83
2022/03/03 07:29:28;;;;;;;90.72;50.35;;;-0.90;99.90;;;;;;5091431;28;20736;-83
2022/03/03 07:31:59;;;;;;;82.15;48.85;;;-0.90;99.90;;;;;;5108968;27;20439;-83
2022/03/03 07:34:29;;;;;;;75.88;47.90;;;-0.80;99.90;;;;;;5109596;28;20394;-82
2022/03/03 07:36:57;;;;;;;87.53;47.35;;;-0.60;99.90;;;;;;5087518;28;20434;-82
2022/03/03 07:39:30;;;;;;;91.18;47.83;;;-0.50;99.90;;;;;;5090038;28;20388;-83
2022/03/03 07:41:57;;;;;;;83.43;46.33;;;-0.40;99.90;;;;;;5084037;28;20486;-86
2022/03/03 07:44:23;;;;;;;79.90;46.90;;;-0.30;99.90;;;;;;5070503;27;20454;-82
2022/03/03 07:46:49;;;;;;;82.90;46.13;;;-0.30;99.90;;;;;;5101467;28;20481;-86
2022/03/03 07:49:19;;;;;;;69.37;43.47;;;-0.20;99.90;;;;;;5109184;28;20378;-83
2022/03/03 07:51:45;;;;;;;75.90;43.77;;;0.10;99.90;;;;;;5094662;28;20466;-86
2022/03/03 07:54:11;;;;;;;72.93;43.30;;;-0.10;99.90;;;;;;5087760;28;20400;-83
2022/03/03 07:56:41;;;;;;;77.10;45.63;;;-0.10;99.90;;;;;;5079324;28;20483;-83
2022/03/03 07:59:11;;;;;;;75.35;45.45;;;-0.20;99.90;;;;;;5108779;28;20370;-83
2022/03/03 08:01:38;;;;;;;76.85;44.17;;;-0.20;99.90;;;;;;5090177;28;20376;-85
2022/03/03 08:04:04;;;;;;;61.03;40.38;;;-0.10;99.90;;;;;;5080238;28;20379;-84
2022/03/03 08:06:32;;;;;;;58.08;39.60;;;0.10;99.90;;;;;;5091358;28;20405;-83
2022/03/03 08:08:59;;;;;;;55.10;38.67;;;0.20;99.90;;;;;;5095024;28;20406;-86
2022/03/03 08:11:28;;;;;;;56.63;39.80;;;0.30;99.90;;;;;;5088889;28;20686;-87
2022/03/03 08:13:55;;;;;;;56.75;38.35;;;0.30;99.90;;;;;;5076608;28;20870;-86
2022/03/03 08:16:21;;;;;;;54.50;37.70;;;0.20;99.90;;;;;;5088510;28;20373;-84
2022/03/03 08:18:47;;;;;;;53.50;38.13;;;0.30;99.90;;;;;;5092370;28;20788;-83
2022/03/03 08:21:14;;;;;;;53.22;37.65;;;0.40;99.90;;;;;;5091801;28;20905;-85
2022/03/03 08:23:42;;;;;;;51.13;37.47;;;0.60;99.90;;;;;;5110087;28;20447;-82
2022/03/03 08:26:11;;;;;;;77.43;58.70;;;0.50;99.90;;;;;;5092630;28;20562;-82
2022/03/03 08:28:37;;;;;;;52.17;36.70;;;0.40;99.90;;;;;;5073708;28;20384;-87
2022/03/03 08:31:07;;;;;;;54.35;38.13;;;0.60;99.90;;;;;;5092485;28;20442;-86
2022/03/03 08:33:45;;;;;;;52.28;36.00;;;0.60;99.90;;;;;;5091617;27;20376;-86
2022/03/03 08:36:20;;;;;;;52.43;36.07;;;0.50;99.90;;;;;;5092754;28;20372;-86
2022/03/03 08:38:53;;;;;;;52.03;35.72;;;0.50;99.90;;;;;;5092085;28;20372;-84
2022/03/03 08:41:22;;;;;;;48.60;34.40;;;0.50;99.90;;;;;;5068384;28;20383;-87
2022/03/03 08:43:51;;;;;;;48.20;34.47;;;0.50;99.90;;;;;;5086396;28;20372;-86
2022/03/03 08:46:23;;;;;;;47.23;33.70;;;0.80;99.90;;;;;;5082513;28;20921;-85
2022/03/03 08:48:49;;;;;;;44.63;32.55;;;0.70;99.90;;;;;;5089731;28;20373;-88
2022/03/03 08:51:18;;;;;;;46.40;31.88;;;0.90;99.90;;;;;;5091388;28;20373;-86
2022/03/03 08:53:46;;;;;;;42.97;30.98;;;1.00;99.90;;;;;;5089634;28;20384;-85
2022/03/03 08:56:11;;;;;;;42.83;30.77;;;1.20;99.90;;;;;;5090990;28;20408;-82
2022/03/03 08:58:38;;;;;;;46.50;32.70;;;1.20;99.90;;;;;;5090237;28;20381;-84
2022/03/03 09:01:03;;;;;;;44.58;31.05;;;1.30;99.90;;;;;;5090860;28;20429;-83
2022/03/03 09:03:29;;;;;;;44.17;31.30;;;1.10;99.90;;;;;;5091174;28;20866;-85
2022/03/03 09:05:56;;;;;;;45.83;33.00;;;1.00;99.90;;;;;;5073203;28;20400;-84
2022/03/03 09:08:23;;;;;;;46.88;31.88;;;1.00;99.90;;;;;;5090373;28;20392;-86
2022/03/03 09:10:49;;;;;;;45.25;31.27;;;1.10;99.90;;;;;;5091377;28;20381;-83
2022/03/03 09:13:14;;;;;;;43.07;28.73;;;1.00;99.90;;;;;;5091230;28;20361;-83
2022/03/03 09:15:40;;;;;;;44.47;31.13;;;1.20;99.90;;;;;;5073234;28;20433;-86
2022/03/03 09:18:06;;;;;;;45.03;29.97;;;1.00;99.90;;;;;;5073093;28;20384;-85
2022/03/03 09:20:33;;;;;;;44.93;30.70;;;1.00;99.90;;;;;;5092722;28;20874;-84
2022/03/03 09:22:58;;;;;;;44.17;29.90;;;0.90;99.90;;;;;;5073513;28;20395;-85
2022/03/03 09:25:24;;;;;;;43.00;30.40;;;0.80;99.90;;;;;;5092219;28;20384;-83
2022/03/03 09:27:50;;;;;;;42.47;29.90;;;0.90;99.90;;;;;;5091478;28;20379;-83
2022/03/03 09:30:16;;;;;;;44.67;30.40;;;1.00;99.90;;;;;;5091140;28;20373;-85
2022/03/03 09:32:41;;;;;;;43.87;30.33;;;1.10;99.90;;;;;;5070171;28;20930;-85
2022/03/03 09:35:08;;;;;;;46.22;31.17;;;1.00;99.90;;;;;;5089212;28;20556;-84
2022/03/03 09:37:34;;;;;;;45.45;30.88;;;1.00;99.90;;;;;;5073222;28;20459;-85
2022/03/03 09:40:00;;;;;;;40.42;29.00;;;1.00;99.90;;;;;;5090417;27;20391;-84
2022/03/03 09:42:34;;;;;;;41.22;29.08;;;1.30;99.90;;;;;;5094399;28;20371;-87
2022/03/03 09:45:01;;;;;;;42.88;29.20;;;1.30;99.90;;;;;;5081612;28;20395;-84
2022/03/03 09:47:27;;;;;;;42.08;29.75;;;1.10;99.90;;;;;;5089477;28;20404;-84
2022/03/03 09:49:53;;;;;;;43.42;30.15;;;1.10;99.90;;;;;;5088872;28;20704;-83
2022/03/03 09:52:19;;;;;;;40.05;28.15;;;1.10;99.90;;;;;;5076929;28;20373;-87
2022/03/03 09:54:50;;;;;;;39.08;27.90;;;1.30;99.90;;;;;;5090823;28;20915;-83
2022/03/03 09:57:16;;;;;;;40.97;28.80;;;1.10;99.90;;;;;;5091023;28;20522;-85
2022/03/03 09:59:47;;;;;;;41.40;29.52;;;1.10;99.90;;;;;;5090834;28;20450;-84
2022/03/03 10:02:13;;;;;;;50.38;36.25;;;1.20;99.90;;;;;;5092393;28;20399;-84
2022/03/03 10:04:39;;;;;;;44.40;30.40;;;1.00;99.90;;;;;;5108750;28;20367;-85
2022/03/03 10:07:07;;;;;;;43.10;28.80;;;1.10;99.90;;;;;;5089874;28;20465;-83
2022/03/03 10:09:59;;;;;;;43.78;29.35;;;1.00;99.90;;;;;;5071988;28;20874;-85
2022/03/03 10:12:22;;;;;;;41.88;29.70;;;1.00;99.90;;;;;;5069816;28;20390;-82
2022/03/03 10:14:49;;;;;;;39.40;27.05;;;1.30;99.90;;;;;;5075922;28;20404;-86
2022/03/03 10:17:15;;;;;;;39.67;29.00;;;1.30;99.90;;;;;;5092210;28;20907;-83
2022/03/03 10:19:56;;;;;;;38.30;27.33;;;1.30;99.90;;;;;;5092184;28;20872;-85
2022/03/03 10:22:57;;;;;;;40.45;30.48;;;1.50;99.90;;;;;;5110501;28;20374;-85
2022/03/03 10:25:41;;;;;;;35.70;25.40;;;1.60;99.90;;;;;;5099496;28;20414;-85
2022/03/03 10:28:19;;;;;;;33.78;25.27;;;2.00;99.90;;;;;;5072362;28;20410;-83
2022/03/03 10:31:06;;;;;;;31.85;22.67;;;2.20;99.90;;;;;;5071060;28;20380;-83
2022/03/03 10:33:37;;;;;;;31.90;22.58;;;2.10;99.90;;;;;;5071703;28;20771;-85
2022/03/03 10:36:15;;;;;;;29.17;21.98;;;2.10;99.90;;;;;;5090014;28;20381;-82
2022/03/03 10:38:54;;;;;;;31.58;22.75;;;2.00;99.90;;;;;;5072286;28;20430;-84
2022/03/03 10:41:43;;;;;;;32.60;23.03;;;1.90;99.90;;;;;;5107348;28;20432;-86
2022/03/03 10:44:14;;;;;;;30.50;22.20;;;2.00;99.90;;;;;;5110361;28;20367;-83
2022/03/03 10:47:07;;;;;;;32.47;22.45;;;2.10;99.90;;;;;;5110169;27;20970;-87
2022/03/03 10:49:35;;;;;;;32.22;23.35;;;2.20;99.90;;;;;;5074860;28;20371;-86
2022/03/03 10:52:14;;;;;;;29.83;22.08;;;2.30;99.90;;;;;;5071648;28;20845;-85
2022/03/03 10:55:01;;;;;;;35.30;22.15;;;2.20;99.90;;;;;;5072279;28;20396;-83
2022/03/03 10:57:43;;;;;;;29.65;21.10;;;2.30;99.90;;;;;;5073255;28;20464;-85
2022/03/03 11:00:21;;;;;;;32.58;22.33;;;2.30;99.90;;;;;;5086225;28;20392;-84
2022/03/03 11:02:49;;;;;;;32.83;23.45;;;2.40;99.90;;;;;;5092404;28;20434;-85
2022/03/03 11:05:17;;;;;;;34.33;23.83;;;2.30;99.90;;;;;;5092724;28;20375;-88
2022/03/03 11:07:44;;;;;;;43.55;32.78;;;2.40;99.90;;;;;;5110092;28;20378;-90
2022/03/03 11:10:15;;;;;;;38.05;26.13;;;2.70;99.90;;;;;;5078967;28;20975;-84
2022/03/03 11:12:43;;;;;;;33.00;22.73;;;2.70;99.90;;;;;;5089811;28;20385;-84
2022/03/03 11:15:10;;;;;;;28.65;21.35;;;2.70;99.90;;;;;;5071976;28;20394;-85
2022/03/03 11:17:36;;;;;;;31.02;22.02;;;2.70;99.90;;;;;;5100547;28;20388;-84
2022/03/03 11:20:04;;;;;;;30.20;21.70;;;2.50;99.90;;;;;;5071118;28;20472;-85
2022/03/03 11:22:31;;;;;;;31.63;20.95;;;2.70;99.90;;;;;;5089740;28;20455;-85
2022/03/03 11:24:58;;;;;;;28.05;20.15;;;2.70;99.90;;;;;;5101801;27;20383;-84
2022/03/03 11:27:41;;;;;;;32.00;21.73;;;2.80;99.90;;;;;;5086891;28;20396;-84
2022/03/03 11:30:28;;;;;;;30.90;20.60;;;2.50;99.90;;;;;;5089053;28;20416;-85
2022/03/03 11:33:19;;;;;;;32.72;22.45;;;2.50;99.90;;;;;;5110296;28;20414;-86
2022/03/03 11:35:47;;;;;;;32.53;22.65;;;2.50;99.90;;;;;;5110070;28;20382;-87
2022/03/03 11:38:16;;;;;;;32.13;22.20;;;2.50;99.90;;;;;;5090675;28;20410;-87
2022/03/03 11:40:59;;;;;;;34.85;24.70;;;2.70;99.90;;;;;;5082903;28;20494;-86
2022/03/03 11:43:27;;;;;;;34.03;23.08;;;2.80;99.90;;;;;;5090966;28;20732;-86
2022/03/03 11:45:56;;;;;;;35.00;23.67;;;2.70;99.90;;;;;;5091477;28;20438;-84
2022/03/03 11:48:23;;;;;;;33.50;23.27;;;2.70;99.90;;;;;;5108765;28;20750;-86
2022/03/03 11:50:50;;;;;;;37.00;23.35;;;2.80;99.90;;;;;;5074475;28;20852;-84
2022/03/03 11:53:24;;;;;;;36.10;23.48;;;2.70;99.90;;;;;;5088370;28;20383;-85
2022/03/03 11:56:04;;;;;;;32.92;22.50;;;2.80;99.90;;;;;;5088989;27;20431;-85
2022/03/03 11:58:38;;;;;;;35.42;24.02;;;2.90;99.90;;;;;;5087422;28;20387;-85
2022/03/03 12:01:11;;;;;;;35.90;23.80;;;2.80;99.90;;;;;;5109141;28;20371;-86
2022/03/03 12:04:00;;;;;;;33.70;23.20;;;2.80;99.90;;;;;;5091248;28;20386;-86
2022/03/03 12:06:46;;;;;;;33.60;23.70;;;3.00;99.90;;;;;;5090967;28;21082;-85
2022/03/03 12:09:19;;;;;;;35.95;24.48;;;3.10;99.90;;;;;;5086030;28;20397;-84
2022/03/03 12:11:45;;;;;;;40.97;27.40;;;3.20;99.90;;;;;;5052958;28;20386;-86
2022/03/03 12:14:39;;;;;;;42.20;27.13;;;3.20;99.90;;;;;;5053136;28;20440;-84
2022/03/03 12:17:34;;;;;;;44.45;28.10;;;3.00;99.90;;;;;;5104996;28;20489;-85
2022/03/03 12:20:37;;;;;;;44.50;26.90;;;2.80;99.90;;;;;;5112091;28;20386;-85
2022/03/03 12:23:13;;;;;;;42.25;26.65;;;2.80;99.90;;;;;;5093709;28;20414;-84
2022/03/03 12:25:47;;;;;;;42.47;27.10;;;3.00;99.90;;;;;;5089856;28;20489;-83
2022/03/03 12:28:34;;;;;;;43.67;27.65;;;3.10;99.90;;;;;;5070635;28;20418;-83
2022/03/03 12:31:03;;;;;;;41.30;26.67;;;3.20;99.90;;;;;;5092392;28;20412;-84
2022/03/03 12:33:32;;;;;;;43.95;28.85;;;3.20;99.90;;;;;;5085031;28;20384;-84
2022/03/03 12:36:03;;;;;;;44.47;28.85;;;3.00;99.90;;;;;;5071251;28;20878;-85
2022/03/03 12:38:30;;;;;;;47.80;29.10;;;3.10;99.90;;;;;;5089918;28;20416;-84
2022/03/03 12:40:56;;;;;;;45.70;28.65;;;2.90;99.90;;;;;;5071514;28;20403;-87